sensor_id;sensor_type;location;lat;lon;timestamp;temperature;humidity
16417;DHT22;8317;52.186;5.688;2023-01-28T00:00:34;3.40;99.90
16417;DHT22;8317;52.186;5.688;2023-01-28T00:03:02;3.40;99.90
16417;DHT22;8317;52.186;5.688;2023-01-28T00:05:32;3.50;99.90
16417;DHT22;8317;52.186;5.688;2023-01-28T00:07:59;3.50;99.90
16417;DHT22;8317;52.186;5.688;2023-01-28T00:10:26;3.50;99.90
16417;DHT22;8317;52.186;5.688;2023-01-28T00:12:54;3.50;99.90
16417;DHT22;8317;52.186;5.688;2023-01-28T00:15:21;3.50;99.90
16417;DHT22;8317;52.186;5.688;2023-01-28T00:17:49;3.50;99.90
16417;DHT22;8317;52.186;5.688;2023-01-28T00:20:17;3.50;99.90
16417;DHT22;8317;52.186;5.688;2023-01-28T00:22:46;3.60;99.90
16417;DHT22;8317;52.186;5.688;2023-01-28T00:25:13;3.60;99.90
16417;DHT22;8317;52.186;5.688;2023-01-28T00:27:40;3.60;99.90
16417;DHT22;8317;52.186;5.688;2023-01-28T00:30:10;3.60;99.90
16417;DHT22;8317;52.186;5.688;2023-01-28T00:32:36;3.50;99.90
16417;DHT22;8317;52.186;5.688;2023-01-28T00:35:04;3.60;99.90
16417;DHT22;8317;52.186;5.688;2023-01-28T00:37:31;3.60;99.90
16417;DHT22;8317;52.186;5.688;2023-01-28T00:39:58;3.60;99.90
16417;DHT22;8317;52.186;5.688;2023-01-28T00:42:25;3.60;99.90
16417;DHT22;8317;52.186;5.688;2023-01-28T00:44:51;3.50;99.90
16417;DHT22;8317;52.186;5.688;2023-01-28T00:47:20;3.60;99.90
16417;DHT22;8317;52.186;5.688;2023-01-28T00:49:47;3.50;99.90
16417;DHT22;8317;52.186;5.688;2023-01-28T00:52:13;3.50;99.90
16417;DHT22;8317;52.186;5.688;2023-01-28T00:54:40;3.50;99.90
16417;DHT22;8317;52.186;5.688;2023-01-28T00:57:07;3.50;99.90
16417;DHT22;8317;52.186;5.688;2023-01-28T00:59:34;3.50;99.90
16417;DHT22;8317;52.186;5.688;2023-01-28T01:02:01;3.50;99.90
16417;DHT22;8317;52.186;5.688;2023-01-28T01:04:38;3.50;99.90
16417;DHT22;8317;52.186;5.688;2023-01-28T01:07:05;3.50;99.90
16417;DHT22;8317;52.186;5.688;2023-01-28T01:09:32;3.50;99.90
16417;DHT22;8317;52.186;5.688;2023-01-28T01:11:59;3.50;99.90
16417;DHT22;8317;52.186;5.688;2023-01-28T01:14:26;3.50;99.90
16417;DHT22;8317;52.186;5.688;2023-01-28T01:16:53;3.50;99.90
16417;DHT22;8317;52.186;5.688;2023-01-28T01:19:20;3.50;99.90
16417;DHT22;8317;52.186;5.688;2023-01-28T01:21:48;3.50;99.90
16417;DHT22;8317;52.186;5.688;2023-01-28T01:24:15;3.50;99.90
16417;DHT22;8317;52.186;5.688;2023-01-28T01:26:42;3.50;99.90
16417;DHT22;8317;52.186;5.688;2023-01-28T01:29:09;3.50;99.90
16417;DHT22;8317;52.186;5.688;2023-01-28T01:31:36;3.40;99.90
16417;DHT22;8317;52.186;5.688;2023-01-28T01:34:03;3.50;99.90
16417;DHT22;8317;52.186;5.688;2023-01-28T01:36:30;3.40;99.90
16417;DHT22;8317;52.186;5.688;2023-01-28T01:38:58;3.50;99.90
16417;DHT22;8317;52.186;5.688;2023-01-28T01:41:27;3.50;99.90
16417;DHT22;8317;52.186;5.688;2023-01-28T01:43:55;3.50;99.90
16417;DHT22;8317;52.186;5.688;2023-01-28T01:46:29;3.40;99.90
16417;DHT22;8317;52.186;5.688;2023-01-28T01:49:05;3.40;99.90
16417;DHT22;8317;52.186;5.688;2023-01-28T01:51:33;3.40;99.90
16417;DHT22;8317;52.186;5.688;2023-01-28T01:54:03;3.40;99.90
16417;DHT22;8317;52.186;5.688;2023-01-28T01:56:34;3.40;99.90
16417;DHT22;8317;52.186;5.688;2023-01-28T01:59:04;3.40;99.90
16417;DHT22;8317;52.186;5.688;2023-01-28T02:01:31;3.40;99.90
16417;DHT22;8317;52.186;5.688;2023-01-28T02:04:03;3.40;99.90
16417;DHT22;8317;52.186;5.688;2023-01-28T02:06:31;3.40;99.90
16417;DHT22;8317;52.186;5.688;2023-01-28T02:08:59;3.40;99.90
16417;DHT22;8317;52.186;5.688;2023-01-28T02:11:29;3.40;99.90
16417;DHT22;8317;52.186;5.688;2023-01-28T02:14:00;3.40;99.90
16417;DHT22;8317;52.186;5.688;2023-01-28T02:16:30;3.40;99.90
16417;DHT22;8317;52.186;5.688;2023-01-28T02:18:57;3.40;99.90
16417;DHT22;8317;52.186;5.688;2023-01-28T02:21:42;3.40;99.90
16417;DHT22;8317;52.186;5.688;2023-01-28T02:24:34;3.40;99.90
16417;DHT22;8317;52.186;5.688;2023-01-28T02:27:21;3.40;99.90
16417;DHT22;8317;52.186;5.688;2023-01-28T02:29:56;3.40;99.90
16417;DHT22;8317;52.186;5.688;2023-01-28T02:32:28;3.30;99.90
16417;DHT22;8317;52.186;5.688;2023-01-28T02:35:03;3.30;99.90
16417;DHT22;8317;52.186;5.688;2023-01-28T02:37:36;3.30;99.90
16417;DHT22;8317;52.186;5.688;2023-01-28T02:40:08;3.30;99.90
16417;DHT22;8317;52.186;5.688;2023-01-28T02:42:37;3.30;99.90
16417;DHT22;8317;52.186;5.688;2023-01-28T02:45:15;3.30;99.90
16417;DHT22;8317;52.186;5.688;2023-01-28T02:47:43;3.30;99.90
16417;DHT22;8317;52.186;5.688;2023-01-28T02:50:30;3.20;99.90
16417;DHT22;8317;52.186;5.688;2023-01-28T02:53:10;3.20;99.90
16417;DHT22;8317;52.186;5.688;2023-01-28T02:56:04;3.20;99.90
16417;DHT22;8317;52.186;5.688;2023-01-28T02:58:36;3.20;99.90
16417;DHT22;8317;52.186;5.688;2023-01-28T03:01:09;3.20;99.90
16417;DHT22;8317;52.186;5.688;2023-01-28T03:03:57;3.20;99.90
16417;DHT22;8317;52.186;5.688;2023-01-28T03:06:27;3.20;99.90
16417;DHT22;8317;52.186;5.688;2023-01-28T03:09:00;3.20;99.90
16417;DHT22;8317;52.186;5.688;2023-01-28T03:11:49;3.20;99.90
16417;DHT22;8317;52.186;5.688;2023-01-28T03:14:35;3.10;99.90
16417;DHT22;8317;52.186;5.688;2023-01-28T03:17:25;3.10;99.90
16417;DHT22;8317;52.186;5.688;2023-01-28T03:20:11;3.20;99.90
16417;DHT22;8317;52.186;5.688;2023-01-28T03:22:58;3.20;99.90
16417;DHT22;8317;52.186;5.688;2023-01-28T03:25:47;3.20;99.90
16417;DHT22;8317;52.186;5.688;2023-01-28T03:28:33;3.20;99.90
16417;DHT22;8317;52.186;5.688;2023-01-28T03:31:19;3.20;99.90
16417;DHT22;8317;52.186;5.688;2023-01-28T03:34:08;3.10;99.90
16417;DHT22;8317;52.186;5.688;2023-01-28T03:36:54;3.10;99.90
16417;DHT22;8317;52.186;5.688;2023-01-28T03:39:23;3.10;99.90
16417;DHT22;8317;52.186;5.688;2023-01-28T03:41:58;3.10;99.90
16417;DHT22;8317;52.186;5.688;2023-01-28T03:44:26;3.10;99.90
16417;DHT22;8317;52.186;5.688;2023-01-28T03:47:10;3.10;99.90
16417;DHT22;8317;52.186;5.688;2023-01-28T03:49:40;3.10;99.90
16417;DHT22;8317;52.186;5.688;2023-01-28T03:52:09;3.10;99.90
16417;DHT22;8317;52.186;5.688;2023-01-28T03:54:36;3.10;99.90
16417;DHT22;8317;52.186;5.688;2023-01-28T03:57:03;3.00;99.90
16417;DHT22;8317;52.186;5.688;2023-01-28T03:59:31;3.10;99.90
16417;DHT22;8317;52.186;5.688;2023-01-28T04:01:59;3.10;99.90
16417;DHT22;8317;52.186;5.688;2023-01-28T04:04:28;3.00;99.90
16417;DHT22;8317;52.186;5.688;2023-01-28T04:06:58;3.00;99.90
16417;DHT22;8317;52.186;5.688;2023-01-28T04:09:25;3.00;99.90
16417;DHT22;8317;52.186;5.688;2023-01-28T04:11:52;3.00;99.90
16417;DHT22;8317;52.186;5.688;2023-01-28T04:14:19;3.00;99.90
16417;DHT22;8317;52.186;5.688;2023-01-28T04:16:46;3.00;99.90
16417;DHT22;8317;52.186;5.688;2023-01-28T04:19:13;3.00;99.90
16417;DHT22;8317;52.186;5.688;2023-01-28T04:21:41;3.00;99.90
16417;DHT22;8317;52.186;5.688;2023-01-28T04:24:09;3.00;99.90
16417;DHT22;8317;52.186;5.688;2023-01-28T04:26:36;3.00;99.90
16417;DHT22;8317;52.186;5.688;2023-01-28T04:29:03;3.00;99.90
16417;DHT22;8317;52.186;5.688;2023-01-28T04:31:30;3.00;99.90
16417;DHT22;8317;52.186;5.688;2023-01-28T04:33:57;3.10;99.90
16417;DHT22;8317;52.186;5.688;2023-01-28T04:36:25;3.00;99.90
16417;DHT22;8317;52.186;5.688;2023-01-28T04:38:52;3.00;99.90
16417;DHT22;8317;52.186;5.688;2023-01-28T04:41:20;3.00;99.90
16417;DHT22;8317;52.186;5.688;2023-01-28T04:43:47;3.00;99.90
16417;DHT22;8317;52.186;5.688;2023-01-28T04:46:14;3.00;99.90
16417;DHT22;8317;52.186;5.688;2023-01-28T04:48:42;3.00;99.90
16417;DHT22;8317;52.186;5.688;2023-01-28T04:51:08;3.00;99.90
16417;DHT22;8317;52.186;5.688;2023-01-28T04:53:35;3.00;99.90
16417;DHT22;8317;52.186;5.688;2023-01-28T04:56:03;3.00;99.90
16417;DHT22;8317;52.186;5.688;2023-01-28T04:58:31;3.00;99.90
16417;DHT22;8317;52.186;5.688;2023-01-28T05:00:58;3.00;99.90
16417;DHT22;8317;52.186;5.688;2023-01-28T05:03:26;3.00;99.90
16417;DHT22;8317;52.186;5.688;2023-01-28T05:05:52;3.00;99.90
16417;DHT22;8317;52.186;5.688;2023-01-28T05:08:19;3.00;99.90
16417;DHT22;8317;52.186;5.688;2023-01-28T05:10:46;3.00;99.90
16417;DHT22;8317;52.186;5.688;2023-01-28T05:13:13;2.90;99.90
16417;DHT22;8317;52.186;5.688;2023-01-28T05:15:42;2.90;99.90
16417;DHT22;8317;52.186;5.688;2023-01-28T05:18:08;2.90;99.90
16417;DHT22;8317;52.186;5.688;2023-01-28T05:20:35;2.90;99.90
16417;DHT22;8317;52.186;5.688;2023-01-28T05:23:02;2.90;99.90
16417;DHT22;8317;52.186;5.688;2023-01-28T05:25:29;2.90;99.90
16417;DHT22;8317;52.186;5.688;2023-01-28T05:27:56;2.90;99.90
16417;DHT22;8317;52.186;5.688;2023-01-28T05:30:23;2.90;99.90
16417;DHT22;8317;52.186;5.688;2023-01-28T05:32:55;2.90;99.90
16417;DHT22;8317;52.186;5.688;2023-01-28T05:35:22;3.00;99.90
16417;DHT22;8317;52.186;5.688;2023-01-28T05:37:50;2.80;99.90
16417;DHT22;8317;52.186;5.688;2023-01-28T05:40:17;2.80;99.90
16417;DHT22;8317;52.186;5.688;2023-01-28T05:42:44;2.80;99.90
16417;DHT22;8317;52.186;5.688;2023-01-28T05:45:11;2.70;99.90
16417;DHT22;8317;52.186;5.688;2023-01-28T05:47:38;2.70;99.90
16417;DHT22;8317;52.186;5.688;2023-01-28T05:50:08;2.80;99.90
16417;DHT22;8317;52.186;5.688;2023-01-28T05:52:35;2.80;99.90
16417;DHT22;8317;52.186;5.688;2023-01-28T05:55:02;2.90;99.90
16417;DHT22;8317;52.186;5.688;2023-01-28T05:57:29;2.90;99.90
16417;DHT22;8317;52.186;5.688;2023-01-28T05:59:56;2.80;99.90
16417;DHT22;8317;52.186;5.688;2023-01-28T06:02:23;2.80;99.90
16417;DHT22;8317;52.186;5.688;2023-01-28T06:04:50;2.80;99.90
16417;DHT22;8317;52.186;5.688;2023-01-28T06:07:18;2.80;99.90
16417;DHT22;8317;52.186;5.688;2023-01-28T06:09:45;2.80;99.90
16417;DHT22;8317;52.186;5.688;2023-01-28T06:12:13;2.70;99.90
16417;DHT22;8317;52.186;5.688;2023-01-28T06:14:40;2.70;99.90
16417;DHT22;8317;52.186;5.688;2023-01-28T06:17:07;2.70;99.90
16417;DHT22;8317;52.186;5.688;2023-01-28T06:19:34;2.70;99.90
16417;DHT22;8317;52.186;5.688;2023-01-28T06:22:01;2.80;99.90
16417;DHT22;8317;52.186;5.688;2023-01-28T06:24:29;2.80;99.90
16417;DHT22;8317;52.186;5.688;2023-01-28T06:26:56;2.80;99.90
16417;DHT22;8317;52.186;5.688;2023-01-28T06:29:23;2.80;99.90
16417;DHT22;8317;52.186;5.688;2023-01-28T06:31:50;2.80;99.90
16417;DHT22;8317;52.186;5.688;2023-01-28T06:34:17;2.70;99.90
16417;DHT22;8317;52.186;5.688;2023-01-28T06:36:44;2.70;99.90
16417;DHT22;8317;52.186;5.688;2023-01-28T06:39:11;2.70;99.90
16417;DHT22;8317;52.186;5.688;2023-01-28T06:41:39;2.70;99.90
16417;DHT22;8317;52.186;5.688;2023-01-28T06:44:06;2.60;99.90
16417;DHT22;8317;52.186;5.688;2023-01-28T06:46:33;2.70;99.90
16417;DHT22;8317;52.186;5.688;2023-01-28T06:49:00;2.60;99.90
16417;DHT22;8317;52.186;5.688;2023-01-28T06:51:27;2.60;99.90
16417;DHT22;8317;52.186;5.688;2023-01-28T06:53:54;2.60;99.90
16417;DHT22;8317;52.186;5.688;2023-01-28T06:56:21;2.60;99.90
16417;DHT22;8317;52.186;5.688;2023-01-28T06:58:49;2.50;99.90
16417;DHT22;8317;52.186;5.688;2023-01-28T07:01:16;2.60;99.90
16417;DHT22;8317;52.186;5.688;2023-01-28T07:03:43;2.60;99.90
16417;DHT22;8317;52.186;5.688;2023-01-28T07:06:10;2.60;99.90
16417;DHT22;8317;52.186;5.688;2023-01-28T07:08:37;2.60;99.90
16417;DHT22;8317;52.186;5.688;2023-01-28T07:11:06;2.60;99.90
16417;DHT22;8317;52.186;5.688;2023-01-28T07:13:33;2.60;99.90
16417;DHT22;8317;52.186;5.688;2023-01-28T07:16:01;2.60;99.90
16417;DHT22;8317;52.186;5.688;2023-01-28T07:18:28;2.60;99.90
16417;DHT22;8317;52.186;5.688;2023-01-28T07:20:55;2.50;99.90
16417;DHT22;8317;52.186;5.688;2023-01-28T07:23:22;2.60;99.90
16417;DHT22;8317;52.186;5.688;2023-01-28T07:25:49;2.60;99.90
16417;DHT22;8317;52.186;5.688;2023-01-28T07:28:16;2.60;99.90
16417;DHT22;8317;52.186;5.688;2023-01-28T07:30:47;2.50;99.90
16417;DHT22;8317;52.186;5.688;2023-01-28T07:33:15;2.60;99.90
16417;DHT22;8317;52.186;5.688;2023-01-28T07:35:43;2.60;99.90
16417;DHT22;8317;52.186;5.688;2023-01-28T07:38:10;2.70;99.90
16417;DHT22;8317;52.186;5.688;2023-01-28T07:40:37;2.60;99.90
16417;DHT22;8317;52.186;5.688;2023-01-28T07:43:04;2.60;99.90
16417;DHT22;8317;52.186;5.688;2023-01-28T07:45:31;2.70;99.90
16417;DHT22;8317;52.186;5.688;2023-01-28T07:48:00;2.60;99.90
16417;DHT22;8317;52.186;5.688;2023-01-28T07:50:30;2.60;99.90
16417;DHT22;8317;52.186;5.688;2023-01-28T07:53:01;2.60;99.90
16417;DHT22;8317;52.186;5.688;2023-01-28T07:55:28;2.70;99.90
16417;DHT22;8317;52.186;5.688;2023-01-28T07:57:56;2.60;99.90
16417;DHT22;8317;52.186;5.688;2023-01-28T08:00:25;2.70;99.90
16417;DHT22;8317;52.186;5.688;2023-01-28T08:02:55;2.70;99.90
16417;DHT22;8317;52.186;5.688;2023-01-28T08:05:22;2.70;99.90
16417;DHT22;8317;52.186;5.688;2023-01-28T08:07:50;2.70;99.90
16417;DHT22;8317;52.186;5.688;2023-01-28T08:10:18;2.70;99.90
16417;DHT22;8317;52.186;5.688;2023-01-28T08:12:52;2.70;99.90
16417;DHT22;8317;52.186;5.688;2023-01-28T08:15:19;2.70;99.90
16417;DHT22;8317;52.186;5.688;2023-01-28T08:17:46;2.70;99.90
16417;DHT22;8317;52.186;5.688;2023-01-28T08:20:13;2.70;99.90
16417;DHT22;8317;52.186;5.688;2023-01-28T08:22:40;2.70;99.90
16417;DHT22;8317;52.186;5.688;2023-01-28T08:25:09;2.80;99.90
16417;DHT22;8317;52.186;5.688;2023-01-28T08:27:36;2.70;99.90
16417;DHT22;8317;52.186;5.688;2023-01-28T08:30:03;2.80;99.90
16417;DHT22;8317;52.186;5.688;2023-01-28T08:32:31;2.80;99.90
16417;DHT22;8317;52.186;5.688;2023-01-28T08:34:58;2.80;99.90
16417;DHT22;8317;52.186;5.688;2023-01-28T08:37:25;2.70;99.90
16417;DHT22;8317;52.186;5.688;2023-01-28T08:39:52;2.70;99.90
16417;DHT22;8317;52.186;5.688;2023-01-28T08:42:20;2.70;99.90
16417;DHT22;8317;52.186;5.688;2023-01-28T08:44:47;2.60;99.90
16417;DHT22;8317;52.186;5.688;2023-01-28T08:47:14;2.70;99.90
16417;DHT22;8317;52.186;5.688;2023-01-28T08:49:41;2.80;99.90
16417;DHT22;8317;52.186;5.688;2023-01-28T08:52:08;2.80;99.90
16417;DHT22;8317;52.186;5.688;2023-01-28T08:54:35;2.90;99.90
16417;DHT22;8317;52.186;5.688;2023-01-28T08:57:02;2.90;99.90
16417;DHT22;8317;52.186;5.688;2023-01-28T08:59:31;3.00;99.90
16417;DHT22;8317;52.186;5.688;2023-01-28T09:01:57;3.00;99.90
16417;DHT22;8317;52.186;5.688;2023-01-28T09:04:24;3.10;99.90
16417;DHT22;8317;52.186;5.688;2023-01-28T09:06:52;3.10;99.90
16417;DHT22;8317;52.186;5.688;2023-01-28T09:09:19;3.20;99.90
16417;DHT22;8317;52.186;5.688;2023-01-28T09:11:46;3.20;99.90
16417;DHT22;8317;52.186;5.688;2023-01-28T09:14:13;3.20;99.90
16417;DHT22;8317;52.186;5.688;2023-01-28T09:16:42;3.20;99.90
16417;DHT22;8317;52.186;5.688;2023-01-28T09:19:09;3.30;99.90
16417;DHT22;8317;52.186;5.688;2023-01-28T09:21:38;3.40;99.90
16417;DHT22;8317;52.186;5.688;2023-01-28T09:24:09;3.40;99.90
16417;DHT22;8317;52.186;5.688;2023-01-28T09:26:35;3.40;99.90
16417;DHT22;8317;52.186;5.688;2023-01-28T09:29:02;3.50;99.90
16417;DHT22;8317;52.186;5.688;2023-01-28T09:31:29;3.50;99.90
16417;DHT22;8317;52.186;5.688;2023-01-28T09:33:58;3.50;99.90
16417;DHT22;8317;52.186;5.688;2023-01-28T09:36:24;3.50;99.90
16417;DHT22;8317;52.186;5.688;2023-01-28T09:38:51;3.60;99.90
16417;DHT22;8317;52.186;5.688;2023-01-28T09:41:24;3.60;99.90
16417;DHT22;8317;52.186;5.688;2023-01-28T09:44:12;3.60;99.90
16417;DHT22;8317;52.186;5.688;2023-01-28T09:46:43;3.60;99.90
16417;DHT22;8317;52.186;5.688;2023-01-28T09:49:18;3.60;99.90
16417;DHT22;8317;52.186;5.688;2023-01-28T09:51:49;3.60;99.90
16417;DHT22;8317;52.186;5.688;2023-01-28T09:54:27;3.60;99.90
16417;DHT22;8317;52.186;5.688;2023-01-28T09:57:01;3.60;99.90
16417;DHT22;8317;52.186;5.688;2023-01-28T09:59:33;3.80;99.90
16417;DHT22;8317;52.186;5.688;2023-01-28T10:02:13;4.00;99.90
16417;DHT22;8317;52.186;5.688;2023-01-28T10:04:54;4.00;99.90
16417;DHT22;8317;52.186;5.688;2023-01-28T10:07:32;4.20;99.90
16417;DHT22;8317;52.186;5.688;2023-01-28T10:10:04;4.40;99.90
16417;DHT22;8317;52.186;5.688;2023-01-28T10:12:44;4.80;99.90
16417;DHT22;8317;52.186;5.688;2023-01-28T10:15:31;5.20;99.90
16417;DHT22;8317;52.186;5.688;2023-01-28T10:18:06;5.70;99.90
16417;DHT22;8317;52.186;5.688;2023-01-28T10:20:39;5.70;99.90
16417;DHT22;8317;52.186;5.688;2023-01-28T10:23:13;5.90;99.90
16417;DHT22;8317;52.186;5.688;2023-01-28T10:25:43;5.80;99.90
16417;DHT22;8317;52.186;5.688;2023-01-28T10:28:18;6.00;99.90
16417;DHT22;8317;52.186;5.688;2023-01-28T10:30:47;6.60;99.90
16417;DHT22;8317;52.186;5.688;2023-01-28T10:33:18;7.10;99.90
16417;DHT22;8317;52.186;5.688;2023-01-28T10:35:48;7.50;99.90
16417;DHT22;8317;52.186;5.688;2023-01-28T10:38:18;7.50;99.90
16417;DHT22;8317;52.186;5.688;2023-01-28T10:40:46;7.80;99.90
16417;DHT22;8317;52.186;5.688;2023-01-28T10:43:14;8.00;99.90
16417;DHT22;8317;52.186;5.688;2023-01-28T10:45:47;8.20;99.90
16417;DHT22;8317;52.186;5.688;2023-01-28T10:48:19;8.10;99.90
16417;DHT22;8317;52.186;5.688;2023-01-28T10:50:52;7.80;99.90
16417;DHT22;8317;52.186;5.688;2023-01-28T10:53:33;7.90;99.90
16417;DHT22;8317;52.186;5.688;2023-01-28T10:56:00;7.90;99.90
16417;DHT22;8317;52.186;5.688;2023-01-28T10:58:30;7.80;99.90
16417;DHT22;8317;52.186;5.688;2023-01-28T11:01:02;7.20;99.90
16417;DHT22;8317;52.186;5.688;2023-01-28T11:03:29;6.20;99.90
16417;DHT22;8317;52.186;5.688;2023-01-28T11:05:58;6.30;99.90
16417;DHT22;8317;52.186;5.688;2023-01-28T11:08:26;5.70;99.90
16417;DHT22;8317;52.186;5.688;2023-01-28T11:10:54;6.30;99.90
16417;DHT22;8317;52.186;5.688;2023-01-28T11:13:23;6.50;99.90
16417;DHT22;8317;52.186;5.688;2023-01-28T11:15:52;6.60;99.90
16417;DHT22;8317;52.186;5.688;2023-01-28T11:18:21;7.00;99.90
16417;DHT22;8317;52.186;5.688;2023-01-28T11:20:52;7.30;99.90
16417;DHT22;8317;52.186;5.688;2023-01-28T11:23:24;7.70;99.90
16417;DHT22;8317;52.186;5.688;2023-01-28T11:26:05;8.10;99.90
16417;DHT22;8317;52.186;5.688;2023-01-28T11:28:34;8.20;99.90
16417;DHT22;8317;52.186;5.688;2023-01-28T11:31:05;8.30;99.90
16417;DHT22;8317;52.186;5.688;2023-01-28T11:33:36;8.40;99.90
16417;DHT22;8317;52.186;5.688;2023-01-28T11:36:06;8.70;99.90
16417;DHT22;8317;52.186;5.688;2023-01-28T11:38:35;8.60;99.90
16417;DHT22;8317;52.186;5.688;2023-01-28T11:41:02;8.90;99.90
16417;DHT22;8317;52.186;5.688;2023-01-28T11:43:30;8.20;99.90
16417;DHT22;8317;52.186;5.688;2023-01-28T11:46:07;8.20;99.90
16417;DHT22;8317;52.186;5.688;2023-01-28T11:48:50;7.90;99.90
16417;DHT22;8317;52.186;5.688;2023-01-28T11:51:30;8.30;99.90
16417;DHT22;8317;52.186;5.688;2023-01-28T11:54:21;8.60;99.90
16417;DHT22;8317;52.186;5.688;2023-01-28T11:57:02;8.80;99.90
16417;DHT22;8317;52.186;5.688;2023-01-28T11:59:49;8.70;99.90
16417;DHT22;8317;52.186;5.688;2023-01-28T12:02:42;8.80;99.90
16417;DHT22;8317;52.186;5.688;2023-01-28T12:05:23;9.50;99.90
16417;DHT22;8317;52.186;5.688;2023-01-28T12:08:03;9.50;99.90
16417;DHT22;8317;52.186;5.688;2023-01-28T12:10:40;9.20;99.90
16417;DHT22;8317;52.186;5.688;2023-01-28T12:13:38;9.00;99.90
16417;DHT22;8317;52.186;5.688;2023-01-28T12:16:31;8.90;99.90
16417;DHT22;8317;52.186;5.688;2023-01-28T12:19:29;8.70;99.90
16417;DHT22;8317;52.186;5.688;2023-01-28T12:25:23;8.90;99.90
16417;DHT22;8317;52.186;5.688;2023-01-28T12:28:02;9.30;99.90
16417;DHT22;8317;52.186;5.688;2023-01-28T12:30:56;9.70;99.90
16417;DHT22;8317;52.186;5.688;2023-01-28T12:33:45;10.00;99.90
16417;DHT22;8317;52.186;5.688;2023-01-28T12:36:25;9.50;99.90
16417;DHT22;8317;52.186;5.688;2023-01-28T12:39:01;9.50;99.90
16417;DHT22;8317;52.186;5.688;2023-01-28T12:41:33;9.60;99.90
16417;DHT22;8317;52.186;5.688;2023-01-28T12:44:05;9.20;99.90
16417;DHT22;8317;52.186;5.688;2023-01-28T12:46:39;9.40;99.90
16417;DHT22;8317;52.186;5.688;2023-01-28T12:49:11;9.90;99.90
16417;DHT22;8317;52.186;5.688;2023-01-28T12:51:51;9.90;99.90
16417;DHT22;8317;52.186;5.688;2023-01-28T12:54:23;9.90;99.90
16417;DHT22;8317;52.186;5.688;2023-01-28T12:56:53;10.30;99.90
16417;DHT22;8317;52.186;5.688;2023-01-28T12:59:24;10.50;99.90
16417;DHT22;8317;52.186;5.688;2023-01-28T13:02:00;10.00;99.90
16417;DHT22;8317;52.186;5.688;2023-01-28T13:04:35;9.60;99.90
16417;DHT22;8317;52.186;5.688;2023-01-28T13:07:06;10.00;99.90
16417;DHT22;8317;52.186;5.688;2023-01-28T13:09:41;10.00;99.90
16417;DHT22;8317;52.186;5.688;2023-01-28T13:12:11;10.50;99.90
16417;DHT22;8317;52.186;5.688;2023-01-28T13:14:40;10.70;99.90
16417;DHT22;8317;52.186;5.688;2023-01-28T13:17:09;10.80;99.90
16417;DHT22;8317;52.186;5.688;2023-01-28T13:19:37;10.60;99.90
16417;DHT22;8317;52.186;5.688;2023-01-28T13:22:23;10.40;99.90
16417;DHT22;8317;52.186;5.688;2023-01-28T13:24:51;10.30;99.90
16417;DHT22;8317;52.186;5.688;2023-01-28T13:27:22;10.70;99.90
16417;DHT22;8317;52.186;5.688;2023-01-28T13:30:00;10.60;99.90
16417;DHT22;8317;52.186;5.688;2023-01-28T13:32:35;10.30;99.90
16417;DHT22;8317;52.186;5.688;2023-01-28T13:35:05;9.40;99.90
16417;DHT22;8317;52.186;5.688;2023-01-28T13:37:35;9.90;99.90
16417;DHT22;8317;52.186;5.688;2023-01-28T13:40:19;10.40;99.90
16417;DHT22;8317;52.186;5.688;2023-01-28T13:42:58;11.10;99.90
16417;DHT22;8317;52.186;5.688;2023-01-28T13:45:27;12.20;99.90
16417;DHT22;8317;52.186;5.688;2023-01-28T13:47:58;11.90;99.90
16417;DHT22;8317;52.186;5.688;2023-01-28T13:50:36;12.00;99.90
16417;DHT22;8317;52.186;5.688;2023-01-28T13:53:15;11.90;99.90
16417;DHT22;8317;52.186;5.688;2023-01-28T13:55:44;11.60;99.90
16417;DHT22;8317;52.186;5.688;2023-01-28T13:58:34;12.50;99.90
16417;DHT22;8317;52.186;5.688;2023-01-28T14:01:30;12.40;99.90
16417;DHT22;8317;52.186;5.688;2023-01-28T14:07:06;11.70;99.90
16417;DHT22;8317;52.186;5.688;2023-01-28T14:09:59;11.50;99.90
16417;DHT22;8317;52.186;5.688;2023-01-28T14:13:00;11.20;99.90
16417;DHT22;8317;52.186;5.688;2023-01-28T14:15:56;10.90;99.90
16417;DHT22;8317;52.186;5.688;2023-01-28T14:18:27;10.90;99.90
16417;DHT22;8317;52.186;5.688;2023-01-28T14:20:59;10.90;99.90
16417;DHT22;8317;52.186;5.688;2023-01-28T14:23:27;10.60;99.90
16417;DHT22;8317;52.186;5.688;2023-01-28T14:26:06;10.30;99.90
16417;DHT22;8317;52.186;5.688;2023-01-28T14:28:44;9.40;99.90
16417;DHT22;8317;52.186;5.688;2023-01-28T14:31:15;8.60;99.90
16417;DHT22;8317;52.186;5.688;2023-01-28T14:33:46;8.80;99.90
16417;DHT22;8317;52.186;5.688;2023-01-28T14:36:13;9.30;99.90
16417;DHT22;8317;52.186;5.688;2023-01-28T14:38:42;10.10;99.90
16417;DHT22;8317;52.186;5.688;2023-01-28T14:41:14;10.00;99.90
16417;DHT22;8317;52.186;5.688;2023-01-28T14:43:44;10.50;99.90
16417;DHT22;8317;52.186;5.688;2023-01-28T14:46:18;10.90;99.90
16417;DHT22;8317;52.186;5.688;2023-01-28T14:49:01;11.20;99.90
16417;DHT22;8317;52.186;5.688;2023-01-28T14:51:43;10.80;99.90
16417;DHT22;8317;52.186;5.688;2023-01-28T14:54:34;10.70;99.90
16417;DHT22;8317;52.186;5.688;2023-01-28T14:57:29;10.10;99.90
16417;DHT22;8317;52.186;5.688;2023-01-28T14:59:59;10.20;99.90
16417;DHT22;8317;52.186;5.688;2023-01-28T15:02:28;10.00;99.90
16417;DHT22;8317;52.186;5.688;2023-01-28T15:05:06;10.00;99.90
16417;DHT22;8317;52.186;5.688;2023-01-28T15:07:34;9.40;99.90
16417;DHT22;8317;52.186;5.688;2023-01-28T15:10:01;9.30;99.90
16417;DHT22;8317;52.186;5.688;2023-01-28T15:12:32;9.30;99.90
16417;DHT22;8317;52.186;5.688;2023-01-28T15:15:08;9.30;99.90
16417;DHT22;8317;52.186;5.688;2023-01-28T15:17:35;9.10;99.90
16417;DHT22;8317;52.186;5.688;2023-01-28T15:20:07;9.10;99.90
16417;DHT22;8317;52.186;5.688;2023-01-28T15:22:34;8.90;99.90
16417;DHT22;8317;52.186;5.688;2023-01-28T15:25:02;8.90;99.90
16417;DHT22;8317;52.186;5.688;2023-01-28T15:27:29;8.50;99.90
16417;DHT22;8317;52.186;5.688;2023-01-28T15:29:58;8.40;99.90
16417;DHT22;8317;52.186;5.688;2023-01-28T15:32:28;8.00;99.90
16417;DHT22;8317;52.186;5.688;2023-01-28T15:34:55;7.80;99.90
16417;DHT22;8317;52.186;5.688;2023-01-28T15:37:26;7.60;99.90
16417;DHT22;8317;52.186;5.688;2023-01-28T15:40:04;7.30;99.90
16417;DHT22;8317;52.186;5.688;2023-01-28T15:42:33;7.40;99.90
16417;DHT22;8317;52.186;5.688;2023-01-28T15:45:01;7.30;99.90
16417;DHT22;8317;52.186;5.688;2023-01-28T15:47:31;7.20;99.90
16417;DHT22;8317;52.186;5.688;2023-01-28T15:50:02;6.90;99.90
16417;DHT22;8317;52.186;5.688;2023-01-28T15:52:33;6.70;99.90
16417;DHT22;8317;52.186;5.688;2023-01-28T15:55:01;6.50;99.90
16417;DHT22;8317;52.186;5.688;2023-01-28T15:57:30;6.40;99.90
16417;DHT22;8317;52.186;5.688;2023-01-28T16:00:11;6.30;99.90
16417;DHT22;8317;52.186;5.688;2023-01-28T16:02:43;6.20;99.90
16417;DHT22;8317;52.186;5.688;2023-01-28T16:05:24;6.10;99.90
16417;DHT22;8317;52.186;5.688;2023-01-28T16:07:52;6.10;99.90
16417;DHT22;8317;52.186;5.688;2023-01-28T16:10:22;6.10;99.90
16417;DHT22;8317;52.186;5.688;2023-01-28T16:12:51;6.00;99.90
16417;DHT22;8317;52.186;5.688;2023-01-28T16:15:20;5.90;99.90
16417;DHT22;8317;52.186;5.688;2023-01-28T16:17:49;5.90;99.90
16417;DHT22;8317;52.186;5.688;2023-01-28T16:20:20;5.90;99.90
16417;DHT22;8317;52.186;5.688;2023-01-28T16:22:49;5.80;99.90
16417;DHT22;8317;52.186;5.688;2023-01-28T16:25:29;5.80;99.90
16417;DHT22;8317;52.186;5.688;2023-01-28T16:27:57;5.80;99.90
16417;DHT22;8317;52.186;5.688;2023-01-28T16:30:25;5.80;99.90
16417;DHT22;8317;52.186;5.688;2023-01-28T16:32:53;5.90;99.90